createdAt,value
2018-07-09T20:19:31.899Z,23.61
2018-07-09T20:21:59.792Z,23.72
2018-07-09T20:24:27.826Z,23.79
2018-07-09T20:26:55.230Z,23.97
2018-07-09T20:29:22.557Z,24.15
2018-07-09T20:31:49.958Z,24.26
2018-07-09T20:34:17.978Z,24.31
2018-07-09T20:36:45.598Z,24.38
2018-07-09T20:39:12.953Z,24.49
2018-07-09T20:41:40.843Z,24.49
2018-07-09T20:44:08.216Z,24.54
2018-07-09T20:46:35.682Z,24.56
2018-07-09T20:49:03.644Z,24.57
2018-07-09T20:51:30.992Z,24.52
2018-07-09T20:53:58.945Z,24.52
2018-07-09T20:56:26.374Z,24.49
2018-07-09T20:58:53.717Z,24.40
2018-07-09T21:01:21.480Z,24.45
2018-07-09T21:03:52.839Z,24.47
2018-07-09T21:06:20.152Z,24.42
2018-07-09T21:08:47.813Z,24.33
2018-07-09T21:11:15.867Z,24.43
2018-07-09T21:13:43.904Z,24.44
2018-07-09T21:16:11.639Z,24.42
2018-07-09T21:18:38.931Z,24.40
2018-07-09T21:21:06.319Z,24.43
2018-07-09T21:23:33.677Z,24.40
2018-07-09T21:26:00.986Z,24.34
2018-07-09T21:28:28.543Z,24.34
2018-07-09T21:30:56.234Z,24.32
2018-07-09T21:33:23.616Z,24.28
2018-07-09T21:35:51.712Z,24.13
2018-07-09T21:38:19.139Z,24.11
2018-07-09T21:40:46.445Z,24.06
2018-07-09T21:43:14.612Z,23.94
2018-07-09T21:45:42.561Z,23.74
2018-07-09T21:48:10.566Z,23.62
2018-07-09T21:50:37.251Z,23.65
2018-07-09T21:53:04.579Z,23.52
2018-07-09T21:55:31.960Z,23.50
2018-07-09T21:57:59.332Z,23.43
2018-07-09T22:00:26.664Z,23.32
2018-07-09T22:02:53.957Z,23.16
2018-07-09T22:05:21.339Z,23.18
2018-07-09T22:07:49.452Z,23.21
2018-07-09T22:10:16.886Z,23.17
2018-07-09T22:12:44.471Z,23.23
2018-07-09T22:15:11.965Z,23.18
2018-07-09T22:17:39.760Z,23.16
2018-07-09T22:20:07.064Z,22.97
2018-07-09T22:22:34.877Z,22.98
2018-07-09T22:25:03.259Z,22.71
2018-07-09T22:27:31.239Z,22.94
2018-07-09T22:29:59.307Z,22.87
2018-07-09T22:32:28.753Z,22.77
2018-07-09T22:34:58.053Z,22.80
2018-07-09T22:37:27.560Z,22.67
2018-07-09T22:39:56.320Z,22.76
2018-07-09T22:42:25.628Z,22.58
2018-07-09T22:44:55.983Z,22.56
2018-07-09T22:47:25.094Z,22.55
2018-07-09T22:49:53.843Z,22.44
2018-07-09T22:52:23.221Z,22.46
2018-07-09T22:55:03.021Z,22.54
2018-07-09T22:57:32.783Z,22.54
2018-07-09T23:00:02.636Z,22.50
2018-07-09T23:02:31.685Z,22.44
2018-07-09T23:05:00.851Z,22.35
2018-07-09T23:07:30.337Z,22.30
2018-07-09T23:10:10.182Z,22.27
2018-07-09T23:16:37.073Z,22.16
2018-07-09T23:19:22.135Z,22.10
2018-07-09T23:22:12.790Z,22.11
2018-07-09T23:24:40.115Z,22.05
2018-07-09T23:27:07.400Z,22.06
2018-07-09T23:29:34.923Z,22.08
2018-07-09T23:32:02.313Z,22.15
2018-07-09T23:34:29.595Z,22.19
2018-07-09T23:36:57.100Z,22.26
2018-07-09T23:39:25.766Z,22.36
2018-07-09T23:41:53.080Z,22.38
2018-07-09T23:44:20.354Z,22.43
2018-07-09T23:46:47.674Z,22.50
2018-07-09T23:49:15.702Z,22.57
2018-07-09T23:51:43.004Z,22.61
2018-07-09T23:54:10.319Z,22.68
2018-07-09T23:56:50.986Z,22.70
2018-07-09T23:59:31.628Z,22.71
